Time;durP1;ratioP1;P1;durP2;ratioP2;P2;SDS_P1;SDS_P2;PMS_P1;PMS_P2;Temp;Humidity;BMP_temperature;BMP_pressure;BME280_temperature;BME280_humidity;BME280_pressure;Samples;Min_cycle;Max_cycle;Signal;HPM_P1;HPM_P2
2023/05/19 00:00:13;;;;;;;7.88;3.42;;;;;;;;;;5022115;28;20022;-72
2023/05/19 00:02:59;;;;;;;5.88;2.40;;;;;;;;;;5025730;28;20428;-73
2023/05/19 00:05:44;;;;;;;7.95;2.47;;;;;;;;;;5017795;28;20073;-70
2023/05/19 00:08:31;;;;;;;5.95;2.47;;;;;;;;;;5032028;28;20101;-76
2023/05/19 00:11:16;;;;;;;8.05;2.78;;;;;;;;;;5030073;28;20036;-76
2023/05/19 00:14:02;;;;;;;8.35;3.38;;;;;;;;;;5033543;28;20534;-75
2023/05/19 00:16:47;;;;;;;7.00;2.45;;;;;;;;;;5031673;28;20017;-76
2023/05/19 00:19:33;;;;;;;8.15;2.60;;;;;;;;;;5029281;28;20547;-77
2023/05/19 00:22:18;;;;;;;7.22;2.72;;;;;;;;;;5030663;28;20029;-76
2023/05/19 00:25:05;;;;;;;6.90;2.85;;;;;;;;;;5030062;28;20036;-82
2023/05/19 00:27:50;;;;;;;6.68;2.47;;;;;;;;;;5011358;28;20083;-76
2023/05/19 00:30:35;;;;;;;7.05;2.83;;;;;;;;;;5024555;28;20033;-78
2023/05/19 00:33:20;;;;;;;7.90;2.58;;;;;;;;;;5033687;28;20112;-75
2023/05/19 00:36:06;;;;;;;11.52;2.65;;;;;;;;;;5019970;28;20124;-76
2023/05/19 00:38:51;;;;;;;7.78;3.25;;;;;;;;;;5033582;28;20518;-78
2023/05/19 00:41:36;;;;;;;6.93;2.20;;;;;;;;;;5032113;28;20025;-77
2023/05/19 00:44:22;;;;;;;6.88;2.63;;;;;;;;;;5033534;28;20034;-73
2023/05/19 00:47:07;;;;;;;9.00;2.95;;;;;;;;;;5031890;28;20035;-75
2023/05/19 00:49:52;;;;;;;6.78;2.70;;;;;;;;;;5030656;28;20395;-76
2023/05/19 00:52:37;;;;;;;5.90;2.22;;;;;;;;;;5028986;28;20025;-74
2023/05/19 00:55:25;;;;;;;8.57;2.60;;;;;;;;;;5019070;28;20037;-77
2023/05/19 00:58:11;;;;;;;5.30;2.30;;;;;;;;;;5029952;28;20025;-75
2023/05/19 01:01:01;;;;;;;7.40;2.70;;;;;;;;;;5035075;28;20029;-82
2023/05/19 01:03:47;;;;;;;8.30;2.25;;;;;;;;;;5037334;28;20051;-70
2023/05/19 01:06:33;;;;;;;6.20;2.70;;;;;;;;;;5034320;28;20060;-69
2023/05/19 01:09:19;;;;;;;6.82;2.20;;;;;;;;;;5036007;28;20029;-68
2023/05/19 01:12:04;;;;;;;7.55;2.15;;;;;;;;;;5024444;28;20025;-72
2023/05/19 01:14:49;;;;;;;6.72;2.58;;;;;;;;;;5036935;28;20020;-69
2023/05/19 01:17:44;;;;;;;3.95;2.20;;;;;;;;;;5037063;28;20025;-69
2023/05/19 01:20:35;;;;;;;9.52;2.45;;;;;;;;;;5034676;28;20035;-74
2023/05/19 01:23:35;;;;;;;5.90;2.47;;;;;;;;;;5020552;28;20029;-76
2023/05/19 01:26:39;;;;;;;5.90;2.78;;;;;;;;;;5034652;28;20111;-77
2023/05/19 01:29:30;;;;;;;9.02;2.60;;;;;;;;;;5038118;28;20013;-77
2023/05/19 01:32:18;;;;;;;7.22;2.72;;;;;;;;;;5038380;28;20557;-76
2023/05/19 01:35:04;;;;;;;4.25;2.47;;;;;;;;;;5033503;28;20020;-77
2023/05/19 01:37:51;;;;;;;6.50;2.67;;;;;;;;;;5024913;28;20041;-76
2023/05/19 01:40:37;;;;;;;10.40;2.08;;;;;;;;;;5048472;28;20029;-76
2023/05/19 01:43:23;;;;;;;4.60;2.03;;;;;;;;;;5027653;28;20090;-77
2023/05/19 01:46:09;;;;;;;7.28;2.10;;;;;;;;;;5037042;28;20024;-77
2023/05/19 01:48:54;;;;;;;4.85;2.28;;;;;;;;;;5036013;28;20497;-77
2023/05/19 01:51:40;;;;;;;6.80;2.63;;;;;;;;;;5035224;28;20542;-75
2023/05/19 01:54:25;;;;;;;6.65;2.30;;;;;;;;;;5036313;28;20028;-77
2023/05/19 01:57:16;;;;;;;8.38;2.42;;;;;;;;;;5050929;28;20060;-74
2023/05/19 02:00:14;;;;;;;7.03;3.38;;;;;;;;;;5038497;28;20033;-74
2023/05/19 02:03:07;;;;;;;4.53;2.40;;;;;;;;;;5048394;28;20021;-75
2023/05/19 02:05:56;;;;;;;7.57;2.38;;;;;;;;;;5048770;28;20318;-75
2023/05/19 02:08:54;;;;;;;5.63;2.05;;;;;;;;;;5023740;28;20510;-76
2023/05/19 02:11:45;;;;;;;8.27;2.65;;;;;;;;;;5046792;28;20074;-76
2023/05/19 02:14:49;;;;;;;4.32;2.35;;;;;;;;;;5028129;28;20417;-76
2023/05/19 02:17:38;;;;;;;5.10;2.35;;;;;;;;;;5036294;28;20110;-72
2023/05/19 02:20:24;;;;;;;6.20;2.63;;;;;;;;;;5035096;28;20033;-74
2023/05/19 02:23:09;;;;;;;4.88;2.13;;;;;;;;;;5021789;28;20480;-74
2023/05/19 02:25:54;;;;;;;4.85;2.20;;;;;;;;;;5035301;28;20060;-74
2023/05/19 02:28:39;;;;;;;4.60;2.28;;;;;;;;;;5035622;28;20031;-72
2023/05/19 02:31:25;;;;;;;5.07;2.03;;;;;;;;;;5024858;28;20024;-74
2023/05/19 02:34:10;;;;;;;7.00;2.40;;;;;;;;;;5032339;28;20040;-82
2023/05/19 02:36:55;;;;;;;8.10;2.95;;;;;;;;;;5025493;28;20025;-74
2023/05/19 02:39:41;;;;;;;5.13;2.38;;;;;;;;;;5024384;28;20036;-71
2023/05/19 02:42:26;;;;;;;7.13;2.28;;;;;;;;;;5049046;28;20024;-74
2023/05/19 02:45:11;;;;;;;5.80;2.47;;;;;;;;;;5035008;28;20044;-72
2023/05/19 02:47:57;;;;;;;8.07;2.58;;;;;;;;;;5041357;28;20468;-72
2023/05/19 02:50:43;;;;;;;9.00;2.72;;;;;;;;;;5047990;28;20064;-70
2023/05/19 02:53:28;;;;;;;4.75;2.17;;;;;;;;;;5035497;28;20040;-74
2023/05/19 02:56:14;;;;;;;7.03;2.40;;;;;;;;;;5044175;28;20028;-76
2023/05/19 02:58:59;;;;;;;5.78;2.55;;;;;;;;;;5031067;28;20033;-76
2023/05/19 03:01:46;;;;;;;4.28;1.95;;;;;;;;;;5032186;28;20029;-76
2023/05/19 03:04:31;;;;;;;6.75;2.47;;;;;;;;;;5033089;28;20376;-73
2023/05/19 03:07:16;;;;;;;9.98;2.25;;;;;;;;;;5033493;28;20041;-75
2023/05/19 03:10:05;;;;;;;7.65;2.72;;;;;;;;;;5034626;28;20537;-77
2023/05/19 03:12:50;;;;;;;6.15;2.83;;;;;;;;;;5034346;28;20094;-76
2023/05/19 03:15:36;;;;;;;5.45;2.58;;;;;;;;;;5034427;28;20248;-77
2023/05/19 03:18:23;;;;;;;4.68;2.30;;;;;;;;;;5027652;28;20043;-75
2023/05/19 03:21:08;;;;;;;6.85;2.42;;;;;;;;;;5032726;28;20041;-78
2023/05/19 03:23:53;;;;;;;4.88;1.98;;;;;;;;;;5030833;28;20078;-77
2023/05/19 03:26:39;;;;;;;7.82;2.47;;;;;;;;;;5034482;28;20542;-76
2023/05/19 03:29:24;;;;;;;6.47;2.22;;;;;;;;;;5035641;28;20024;-69
2023/05/19 03:32:09;;;;;;;5.10;2.47;;;;;;;;;;5023989;28;20021;-72
2023/05/19 03:34:54;;;;;;;5.38;2.20;;;;;;;;;;5033261;28;20518;-72
2023/05/19 03:37:40;;;;;;;4.75;2.10;;;;;;;;;;5020703;28;20039;-71
2023/05/19 03:40:25;;;;;;;8.27;2.60;;;;;;;;;;5034670;28;20036;-72
2023/05/19 03:43:10;;;;;;;5.15;2.22;;;;;;;;;;5029349;28;20475;-72
2023/05/19 03:45:55;;;;;;;4.40;2.03;;;;;;;;;;5019844;28;20024;-70
2023/05/19 03:48:40;;;;;;;3.42;1.80;;;;;;;;;;5033377;28;20039;-71
2023/05/19 03:51:27;;;;;;;8.05;2.28;;;;;;;;;;5017807;28;20039;-70
2023/05/19 03:54:12;;;;;;;7.63;2.70;;;;;;;;;;5036521;28;20120;-70
2023/05/19 03:56:57;;;;;;;4.97;2.35;;;;;;;;;;5023010;28;20036;-69
2023/05/19 03:59:42;;;;;;;4.75;2.35;;;;;;;;;;5031612;28;20465;-70
2023/05/19 04:02:28;;;;;;;6.95;2.10;;;;;;;;;;5027888;28;20017;-69
2023/05/19 04:05:13;;;;;;;4.90;2.20;;;;;;;;;;5033673;28;20032;-72
2023/05/19 04:07:58;;;;;;;6.32;2.75;;;;;;;;;;5033792;28;20041;-73
2023/05/19 04:10:43;;;;;;;5.20;1.85;;;;;;;;;;5022028;28;20028;-72
2023/05/19 04:13:29;;;;;;;6.88;1.95;;;;;;;;;;5027328;28;20123;-72
2023/05/19 04:16:15;;;;;;;10.75;2.63;;;;;;;;;;5033426;28;20040;-73
2023/05/19 04:19:00;;;;;;;6.00;2.47;;;;;;;;;;5032362;28;20115;-72
2023/05/19 04:21:45;;;;;;;6.53;3.17;;;;;;;;;;5032055;28;20060;-73
2023/05/19 04:24:32;;;;;;;10.45;3.45;;;;;;;;;;5032367;28;20165;-73
2023/05/19 04:27:17;;;;;;;5.03;2.17;;;;;;;;;;5033303;28;20086;-80
2023/05/19 04:30:03;;;;;;;5.32;2.78;;;;;;;;;;5053400;28;20047;-83
2023/05/19 04:32:51;;;;;;;6.45;2.40;;;;;;;;;;5023451;28;20036;-79
2023/05/19 04:35:38;;;;;;;8.57;2.78;;;;;;;;;;5022960;28;20462;-81
2023/05/19 04:38:23;;;;;;;9.18;2.53;;;;;;;;;;5023905;28;20040;-80
2023/05/19 04:41:09;;;;;;;9.43;3.13;;;;;;;;;;5032785;28;20468;-74
2023/05/19 04:43:56;;;;;;;7.72;2.35;;;;;;;;;;5042523;28;20091;-77
2023/05/19 04:46:43;;;;;;;6.03;2.65;;;;;;;;;;5033188;28;20488;-73
2023/05/19 04:49:29;;;;;;;10.93;2.55;;;;;;;;;;5032694;28;20025;-76
2023/05/19 04:52:14;;;;;;;6.50;2.55;;;;;;;;;;5033060;28;20112;-77
2023/05/19 04:55:00;;;;;;;6.70;3.20;;;;;;;;;;5012760;28;20033;-77
2023/05/19 04:57:45;;;;;;;10.45;2.88;;;;;;;;;;5038309;28;20028;-76
2023/05/19 05:00:31;;;;;;;9.32;2.90;;;;;;;;;;5020596;28;20233;-68
2023/05/19 05:03:17;;;;;;;12.05;3.22;;;;;;;;;;5031913;28;20025;-71
2023/05/19 05:06:03;;;;;;;7.38;3.10;;;;;;;;;;5033288;28;20044;-72
2023/05/19 05:08:48;;;;;;;5.10;2.70;;;;;;;;;;5033503;28;20032;-72
2023/05/19 05:11:34;;;;;;;12.55;3.75;;;;;;;;;;5033213;28;20029;-72
2023/05/19 05:14:19;;;;;;;6.10;2.42;;;;;;;;;;5032131;28;20029;-71
2023/05/19 05:17:05;;;;;;;7.60;2.88;;;;;;;;;;5032208;28;20020;-72
2023/05/19 05:19:50;;;;;;;7.13;3.10;;;;;;;;;;5031679;28;20093;-75
2023/05/19 05:22:37;;;;;;;10.70;2.50;;;;;;;;;;5031812;28;20029;-71
2023/05/19 05:25:22;;;;;;;9.82;2.85;;;;;;;;;;5042257;28;20076;-72
2023/05/19 05:28:08;;;;;;;7.82;2.67;;;;;;;;;;5033678;28;20111;-69
2023/05/19 05:30:55;;;;;;;7.47;2.13;;;;;;;;;;5030659;28;20052;-68
2023/05/19 05:33:40;;;;;;;8.88;3.55;;;;;;;;;;5016892;28;20238;-68
2023/05/19 05:36:25;;;;;;;7.45;2.50;;;;;;;;;;5031835;28;20024;-82
2023/05/19 05:39:10;;;;;;;5.55;2.42;;;;;;;;;;5030851;28;20145;-70
2023/05/19 05:41:56;;;;;;;8.80;2.88;;;;;;;;;;5021142;28;20024;-68
2023/05/19 05:44:41;;;;;;;8.80;3.00;;;;;;;;;;5018887;28;20041;-69
2023/05/19 05:47:26;;;;;;;12.65;3.22;;;;;;;;;;5036297;28;20036;-69
2023/05/19 05:50:12;;;;;;;7.18;2.70;;;;;;;;;;5036546;28;20045;-69
2023/05/19 05:52:59;;;;;;;6.65;3.33;;;;;;;;;;5036326;28;20040;-69
2023/05/19 05:55:45;;;;;;;8.85;3.15;;;;;;;;;;5025620;28;20024;-82
2023/05/19 05:58:33;;;;;;;9.77;2.88;;;;;;;;;;5041435;28;20037;-74
2023/05/19 06:01:19;;;;;;;8.38;2.75;;;;;;;;;;5035683;28;20047;-75
2023/05/19 06:04:04;;;;;;;8.88;3.20;;;;;;;;;;5035138;28;20029;-73
2023/05/19 06:06:51;;;;;;;5.20;2.35;;;;;;;;;;5031568;28;20045;-74
2023/05/19 06:09:36;;;;;;;6.18;3.00;;;;;;;;;;5021062;28;20033;-74
2023/05/19 06:12:22;;;;;;;10.00;3.50;;;;;;;;;;5032567;28;20391;-74
2023/05/19 06:15:07;;;;;;;7.88;3.75;;;;;;;;;;5027977;28;20045;-73
2023/05/19 06:17:53;;;;;;;10.18;3.42;;;;;;;;;;5034105;28;20057;-80
2023/05/19 06:20:38;;;;;;;6.72;3.00;;;;;;;;;;5049324;28;20032;-80
2023/05/19 06:23:25;;;;;;;11.40;3.47;;;;;;;;;;5035746;28;20029;-80
2023/05/19 06:26:10;;;;;;;8.18;3.13;;;;;;;;;;5031630;28;20115;-81
2023/05/19 06:28:55;;;;;;;8.10;3.25;;;;;;;;;;5034696;28;20035;-79
2023/05/19 06:31:41;;;;;;;8.52;2.63;;;;;;;;;;5020923;28;20426;-71
2023/05/19 06:34:26;;;;;;;7.40;2.95;;;;;;;;;;5049364;28;20031;-68
2023/05/19 06:37:13;;;;;;;10.70;3.55;;;;;;;;;;5035577;28;20029;-73
2023/05/19 06:39:59;;;;;;;13.68;4.03;;;;;;;;;;5019904;28;20060;-74
2023/05/19 06:42:44;;;;;;;9.02;3.03;;;;;;;;;;5029969;28;20064;-74
2023/05/19 06:45:29;;;;;;;8.88;3.47;;;;;;;;;;5032957;28;20441;-74
2023/05/19 06:48:14;;;;;;;12.27;3.60;;;;;;;;;;5035387;28;20071;-74
2023/05/19 06:51:00;;;;;;;10.05;3.22;;;;;;;;;;5034866;28;20044;-79
2023/05/19 06:53:45;;;;;;;8.20;3.45;;;;;;;;;;5034088;28;20767;-73
2023/05/19 06:56:30;;;;;;;9.15;3.10;;;;;;;;;;5048695;28;20029;-77
2023/05/19 06:59:15;;;;;;;8.65;3.55;;;;;;;;;;5042486;28;20033;-77
2023/05/19 07:02:01;;;;;;;8.52;3.30;;;;;;;;;;5015650;28;20077;-76
2023/05/19 07:04:46;;;;;;;7.82;3.05;;;;;;;;;;5045875;28;20035;-75
2023/05/19 07:07:31;;;;;;;11.82;3.60;;;;;;;;;;5012719;28;20061;-76
2023/05/19 07:10:16;;;;;;;11.07;3.47;;;;;;;;;;5024618;28;20108;-77
2023/05/19 07:13:02;;;;;;;9.15;2.78;;;;;;;;;;4996713;28;20473;-78
2023/05/19 07:15:54;;;;;;;10.30;4.35;;;;;;;;;;5021482;28;20476;-76
2023/05/19 07:18:39;;;;;;;10.50;3.78;;;;;;;;;;5020178;28;20037;-77
2023/05/19 07:21:25;;;;;;;6.93;3.00;;;;;;;;;;5016458;28;20377;-78
2023/05/19 07:24:10;;;;;;;11.60;3.58;;;;;;;;;;5016365;28;20029;-77
2023/05/19 07:26:55;;;;;;;7.50;3.17;;;;;;;;;;5023637;28;20025;-78
2023/05/19 07:29:40;;;;;;;6.80;3.40;;;;;;;;;;5015999;28;20454;-73
2023/05/19 07:32:26;;;;;;;12.20;3.83;;;;;;;;;;5009849;28;20033;-75
2023/05/19 07:35:11;;;;;;;8.15;3.03;;;;;;;;;;5012265;28;20034;-74
2023/05/19 07:37:56;;;;;;;12.20;3.47;;;;;;;;;;5028202;28;20082;-73
2023/05/19 07:40:41;;;;;;;12.95;4.28;;;;;;;;;;5028596;28;20033;-75
2023/05/19 07:43:26;;;;;;;7.25;2.97;;;;;;;;;;5024962;28;20030;-74
2023/05/19 07:46:12;;;;;;;10.52;3.45;;;;;;;;;;5007304;28;20030;-81
2023/05/19 07:48:58;;;;;;;9.75;3.22;;;;;;;;;;5021953;28;20024;-74
2023/05/19 07:51:43;;;;;;;10.75;3.58;;;;;;;;;;5027200;28;20017;-74
2023/05/19 07:54:29;;;;;;;11.25;4.22;;;;;;;;;;5017690;28;20080;-74
2023/05/19 07:57:14;;;;;;;9.95;3.20;;;;;;;;;;5008984;28;20026;-73
2023/05/19 08:00:00;;;;;;;8.05;3.45;;;;;;;;;;5016465;28;20094;-73
2023/05/19 08:02:45;;;;;;;6.30;3.08;;;;;;;;;;5019892;28;20076;-73
2023/05/19 08:05:31;;;;;;;10.32;2.63;;;;;;;;;;5015122;28;20117;-71
2023/05/19 08:08:18;;;;;;;7.35;3.25;;;;;;;;;;5033283;28;20024;-72
2023/05/19 08:11:03;;;;;;;9.10;3.35;;;;;;;;;;5033232;28;20104;-71
2023/05/19 08:13:48;;;;;;;7.45;3.20;;;;;;;;;;5033122;28;20333;-70
2023/05/19 08:16:34;;;;;;;8.48;3.58;;;;;;;;;;5019436;28;20209;-71
2023/05/19 08:19:19;;;;;;;12.27;3.67;;;;;;;;;;5033361;28;20423;-69
2023/05/19 08:22:04;;;;;;;6.97;3.13;;;;;;;;;;5033851;28;20024;-79
2023/05/19 08:24:50;;;;;;;11.32;3.45;;;;;;;;;;5032448;28;20028;-72
2023/05/19 08:27:35;;;;;;;10.68;3.85;;;;;;;;;;5027561;28;20088;-72
2023/05/19 08:30:21;;;;;;;8.10;2.80;;;;;;;;;;5022335;28;20036;-72
2023/05/19 08:33:07;;;;;;;8.82;3.00;;;;;;;;;;5031591;28;20051;-73
2023/05/19 08:35:54;;;;;;;12.77;3.97;;;;;;;;;;5027983;28;20381;-72
2023/05/19 08:38:39;;;;;;;9.18;2.92;;;;;;;;;;5033538;28;20472;-73
2023/05/19 08:41:25;;;;;;;11.95;3.00;;;;;;;;;;5031349;28;20596;-71
2023/05/19 08:44:10;;;;;;;5.93;2.75;;;;;;;;;;5032717;28;20043;-74
2023/05/19 08:46:56;;;;;;;7.47;3.00;;;;;;;;;;5028225;28;20446;-73
2023/05/19 08:49:45;;;;;;;6.30;2.65;;;;;;;;;;5032288;28;20372;-71
2023/05/19 08:52:48;;;;;;;8.20;3.15;;;;;;;;;;5019726;28;20028;-73
2023/05/19 08:55:50;;;;;;;7.93;3.28;;;;;;;;;;5027989;28;20032;-73
2023/05/19 08:58:40;;;;;;;10.50;3.42;;;;;;;;;;5040008;28;20208;-74
2023/05/19 09:01:27;;;;;;;11.45;2.92;;;;;;;;;;5030344;28;20041;-74
2023/05/19 09:04:12;;;;;;;13.63;3.60;;;;;;;;;;5029972;28;20049;-75
2023/05/19 09:07:01;;;;;;;8.95;3.38;;;;;;;;;;4999976;28;20045;-75
2023/05/19 09:09:46;;;;;;;10.27;3.13;;;;;;;;;;4998737;28;20035;-76
2023/05/19 09:12:32;;;;;;;8.45;3.30;;;;;;;;;;5000802;28;20083;-75
2023/05/19 09:15:18;;;;;;;9.80;3.13;;;;;;;;;;4994723;28;20117;-75
2023/05/19 09:18:10;;;;;;;10.80;3.72;;;;;;;;;;5001431;28;20060;-70
2023/05/19 09:20:59;;;;;;;8.20;3.38;;;;;;;;;;5005702;28;20022;-74
2023/05/19 09:23:45;;;;;;;7.22;2.42;;;;;;;;;;4995479;28;20053;-74
2023/05/19 09:26:38;;;;;;;14.85;3.80;;;;;;;;;;5008078;28;20044;-72
2023/05/19 09:29:24;;;;;;;8.88;3.40;;;;;;;;;;5009811;28;20026;-71
2023/05/19 09:32:09;;;;;;;8.77;3.25;;;;;;;;;;5006904;28;20029;-71
2023/05/19 09:34:55;;;;;;;18.77;4.00;;;;;;;;;;5008361;28;20028;-73
2023/05/19 09:37:41;;;;;;;13.60;3.33;;;;;;;;;;5021513;28;20041;-72
2023/05/19 09:40:26;;;;;;;5.32;2.80;;;;;;;;;;5006514;28;20505;-73
2023/05/19 09:43:12;;;;;;;9.55;3.63;;;;;;;;;;5001476;28;20561;-69
2023/05/19 09:46:00;;;;;;;6.72;3.22;;;;;;;;;;5002099;28;20052;-70
2023/05/19 09:48:45;;;;;;;10.35;3.70;;;;;;;;;;5001742;28;20015;-71
2023/05/19 09:51:30;;;;;;;11.02;3.22;;;;;;;;;;5020683;28;20036;-70
2023/05/19 09:54:16;;;;;;;8.90;3.08;;;;;;;;;;5009973;28;20033;-71
2023/05/19 09:57:02;;;;;;;8.77;3.55;;;;;;;;;;5013466;28;20025;-73
2023/05/19 09:59:47;;;;;;;8.77;4.45;;;;;;;;;;5004732;28;20045;-70
2023/05/19 10:02:33;;;;;;;12.00;4.10;;;;;;;;;;5006204;28;20030;-72
2023/05/19 10:05:19;;;;;;;11.75;3.40;;;;;;;;;;5005789;28;20062;-68
2023/05/19 10:08:06;;;;;;;10.23;3.58;;;;;;;;;;4998363;28;20532;-71
2023/05/19 10:10:51;;;;;;;7.70;3.63;;;;;;;;;;5006033;28;20433;-70
2023/05/19 10:13:37;;;;;;;8.30;3.17;;;;;;;;;;5006488;28;20208;-76
2023/05/19 10:16:25;;;;;;;8.55;3.40;;;;;;;;;;5007458;28;20045;-75
2023/05/19 10:19:10;;;;;;;14.13;4.53;;;;;;;;;;4997894;28;20495;-70
2023/05/19 10:21:56;;;;;;;12.02;3.40;;;;;;;;;;5023959;28;20393;-72
2023/05/19 10:24:42;;;;;;;8.70;3.40;;;;;;;;;;5024003;28;20079;-71
2023/05/19 10:27:28;;;;;;;12.57;3.28;;;;;;;;;;5009737;28;20434;-71
2023/05/19 10:30:15;;;;;;;12.20;3.67;;;;;;;;;;5021511;28;20025;-71
2023/05/19 10:33:02;;;;;;;9.57;3.78;;;;;;;;;;5008861;28;20033;-72
2023/05/19 10:36:07;;;;;;;8.93;4.03;;;;;;;;;;5009777;28;20049;-71
2023/05/19 10:39:11;;;;;;;8.82;3.17;;;;;;;;;;5017238;28;20110;-70
2023/05/19 10:42:09;;;;;;;7.53;3.17;;;;;;;;;;5023417;28;20026;-70
2023/05/19 10:45:10;;;;;;;7.43;2.85;;;;;;;;;;5019674;28;20025;-71
2023/05/19 10:47:56;;;;;;;8.10;3.20;;;;;;;;;;4999711;28;20117;-71
2023/05/19 10:50:45;;;;;;;7.90;3.50;;;;;;;;;;5013882;28;20065;-66
2023/05/19 10:53:31;;;;;;;7.88;3.65;;;;;;;;;;5022597;28;20045;-71
2023/05/19 10:56:32;;;;;;;6.57;3.22;;;;;;;;;;4989656;28;20442;-71
2023/05/19 10:59:33;;;;;;;8.10;3.05;;;;;;;;;;5005578;28;20069;-70
2023/05/19 11:02:38;;;;;;;8.85;3.03;;;;;;;;;;5001620;28;20022;-70
2023/05/19 11:05:27;;;;;;;4.40;2.80;;;;;;;;;;5009576;28;20045;-71
2023/05/19 11:08:12;;;;;;;8.17;3.13;;;;;;;;;;5027836;28;20037;-69
2023/05/19 11:11:11;;;;;;;9.93;3.20;;;;;;;;;;5034176;28;20032;-71
2023/05/19 11:13:58;;;;;;;7.80;3.13;;;;;;;;;;5033194;28;20468;-71
2023/05/19 11:16:47;;;;;;;8.23;3.35;;;;;;;;;;5023318;28;20029;-71
2023/05/19 11:19:36;;;;;;;6.47;3.55;;;;;;;;;;5034451;28;20032;-71
2023/05/19 11:22:22;;;;;;;11.75;3.63;;;;;;;;;;5034137;28;20074;-70
2023/05/19 11:25:08;;;;;;;9.18;3.72;;;;;;;;;;5033359;28;20044;-71
2023/05/19 11:27:54;;;;;;;8.52;3.70;;;;;;;;;;5032941;28;20028;-69
2023/05/19 11:30:43;;;;;;;6.97;3.80;;;;;;;;;;5024290;28;20611;-74
2023/05/19 11:33:31;;;;;;;10.25;3.70;;;;;;;;;;5022336;28;20025;-75
2023/05/19 11:36:17;;;;;;;9.65;3.38;;;;;;;;;;5048212;28;20040;-74
2023/05/19 11:39:02;;;;;;;5.85;2.80;;;;;;;;;;5032860;28;20040;-74
2023/05/19 11:41:49;;;;;;;7.80;3.50;;;;;;;;;;5033835;28;20033;-73
2023/05/19 11:44:35;;;;;;;10.18;3.78;;;;;;;;;;5021766;28;20552;-71
2023/05/19 11:47:20;;;;;;;7.63;3.35;;;;;;;;;;5033509;28;20037;-67
2023/05/19 11:50:06;;;;;;;9.43;3.80;;;;;;;;;;5032866;28;20025;-70
2023/05/19 11:52:52;;;;;;;8.73;4.18;;;;;;;;;;5035350;28;20033;-70
2023/05/19 11:55:40;;;;;;;6.40;2.95;;;;;;;;;;5031142;28;20036;-72
2023/05/19 11:58:27;;;;;;;6.60;3.17;;;;;;;;;;5037924;28;20049;-71
2023/05/19 12:01:12;;;;;;;9.95;3.30;;;;;;;;;;5033871;28;20036;-70
2023/05/19 12:03:57;;;;;;;11.40;3.17;;;;;;;;;;5033227;28;20110;-67
2023/05/19 12:06:43;;;;;;;11.30;3.83;;;;;;;;;;5033352;28;20131;-69
2023/05/19 12:09:28;;;;;;;8.70;2.80;;;;;;;;;;5032868;28;20610;-68
2023/05/19 12:12:15;;;;;;;6.90;2.90;;;;;;;;;;5022602;28;20041;-70
2023/05/19 12:15:02;;;;;;;11.65;3.55;;;;;;;;;;5026897;28;20025;-68
2023/05/19 12:17:55;;;;;;;6.97;3.30;;;;;;;;;;5033343;28;20024;-68
2023/05/19 12:20:40;;;;;;;10.32;3.63;;;;;;;;;;5047489;28;20116;-69
2023/05/19 12:23:25;;;;;;;8.82;3.55;;;;;;;;;;5033945;28;20028;-68
2023/05/19 12:26:11;;;;;;;6.70;3.13;;;;;;;;;;5028429;28;20021;-72
2023/05/19 12:28:57;;;;;;;6.88;3.08;;;;;;;;;;5013781;28;20175;-72
2023/05/19 12:31:45;;;;;;;12.45;3.33;;;;;;;;;;5022020;28;20029;-70
2023/05/19 12:34:30;;;;;;;7.15;3.05;;;;;;;;;;5033720;28;20103;-70
2023/05/19 12:37:16;;;;;;;9.02;3.17;;;;;;;;;;5018768;28;20039;-71
2023/05/19 12:40:02;;;;;;;6.72;3.17;;;;;;;;;;5031314;28;20029;-68
2023/05/19 12:42:50;;;;;;;6.68;3.35;;;;;;;;;;5027751;28;20536;-69
2023/05/19 12:45:37;;;;;;;9.77;3.13;;;;;;;;;;5033061;28;20084;-71
2023/05/19 12:48:22;;;;;;;11.43;3.72;;;;;;;;;;5030689;28;20122;-70
2023/05/19 12:51:08;;;;;;;8.43;4.20;;;;;;;;;;5040700;28;20025;-70
2023/05/19 12:53:53;;;;;;;8.27;3.40;;;;;;;;;;5023338;28;20059;-72
2023/05/19 12:56:47;;;;;;;9.48;3.88;;;;;;;;;;5050922;28;20033;-71
2023/05/19 12:59:33;;;;;;;9.63;3.63;;;;;;;;;;5024643;28;20037;-77
2023/05/19 13:02:20;;;;;;;8.60;3.17;;;;;;;;;;5031598;28;20014;-71
2023/05/19 13:05:05;;;;;;;8.68;3.80;;;;;;;;;;5037227;28;20056;-70
2023/05/19 13:07:55;;;;;;;5.60;2.90;;;;;;;;;;5027005;28;20103;-70
2023/05/19 13:10:41;;;;;;;7.13;2.90;;;;;;;;;;5036538;28;20396;-71
2023/05/19 13:13:26;;;;;;;6.85;3.13;;;;;;;;;;5049434;28;20179;-70
2023/05/19 13:16:12;;;;;;;7.43;3.25;;;;;;;;;;5023909;28;20068;-66
2023/05/19 13:18:57;;;;;;;11.98;3.53;;;;;;;;;;5036956;28;20033;-68
2023/05/19 13:21:42;;;;;;;13.60;4.57;;;;;;;;;;5037338;28;20025;-72
2023/05/19 13:24:28;;;;;;;10.90;3.95;;;;;;;;;;5036277;28;20491;-70
2023/05/19 13:27:13;;;;;;;9.23;3.20;;;;;;;;;;5035690;28;20036;-72
2023/05/19 13:29:58;;;;;;;9.23;3.85;;;;;;;;;;5041740;28;20506;-70
2023/05/19 13:32:44;;;;;;;7.15;3.25;;;;;;;;;;5040661;28;20037;-70
2023/05/19 13:35:35;;;;;;;12.65;3.20;;;;;;;;;;5028144;28;20025;-71
2023/05/19 13:38:20;;;;;;;10.85;3.58;;;;;;;;;;5024067;28;20273;-67
2023/05/19 13:41:06;;;;;;;11.98;4.50;;;;;;;;;;5034764;28;20037;-69
2023/05/19 13:43:52;;;;;;;8.73;2.97;;;;;;;;;;5046757;28;20462;-68
2023/05/19 13:46:37;;;;;;;9.13;3.97;;;;;;;;;;5034275;28;20056;-70
2023/05/19 13:49:22;;;;;;;6.32;3.00;;;;;;;;;;5033890;28;20043;-72
2023/05/19 13:52:07;;;;;;;6.90;3.00;;;;;;;;;;5034337;28;20025;-71
2023/05/19 13:54:56;;;;;;;9.00;3.38;;;;;;;;;;5037842;28;20105;-71
2023/05/19 13:57:41;;;;;;;6.13;3.08;;;;;;;;;;5033489;28;20038;-70
2023/05/19 14:00:26;;;;;;;6.45;3.40;;;;;;;;;;5022752;28;20044;-70
2023/05/19 14:03:14;;;;;;;8.40;3.20;;;;;;;;;;5035950;28;20041;-69
2023/05/19 14:06:00;;;;;;;10.35;3.10;;;;;;;;;;5035187;28;20166;-70
2023/05/19 14:08:45;;;;;;;8.88;3.67;;;;;;;;;;5031065;28;20542;-71
2023/05/19 14:11:30;;;;;;;10.40;3.28;;;;;;;;;;5027980;28;20098;-68
2023/05/19 14:14:16;;;;;;;7.95;3.63;;;;;;;;;;5034074;28;20487;-75
2023/05/19 14:17:01;;;;;;;8.18;3.33;;;;;;;;;;5036036;28;20024;-69
2023/05/19 14:19:46;;;;;;;11.43;3.65;;;;;;;;;;5035564;28;20040;-70
2023/05/19 14:22:31;;;;;;;7.55;3.38;;;;;;;;;;5035421;28;21195;-68
2023/05/19 14:25:17;;;;;;;11.82;3.30;;;;;;;;;;5035139;28;20029;-70
2023/05/19 14:28:02;;;;;;;9.18;3.72;;;;;;;;;;5035512;28;20159;-68
2023/05/19 14:30:47;;;;;;;8.25;3.33;;;;;;;;;;5032128;28;20037;-70
2023/05/19 14:33:32;;;;;;;9.48;3.55;;;;;;;;;;5031560;28;20495;-68
2023/05/19 14:36:18;;;;;;;12.15;3.85;;;;;;;;;;5035522;28;20024;-69
2023/05/19 14:39:03;;;;;;;8.85;3.55;;;;;;;;;;5028268;28;20055;-69
2023/05/19 14:41:50;;;;;;;9.60;3.58;;;;;;;;;;5029630;28;20021;-68
2023/05/19 14:44:36;;;;;;;7.97;3.70;;;;;;;;;;5034561;28;20164;-69
2023/05/19 14:47:21;;;;;;;8.15;3.40;;;;;;;;;;5034992;28;20415;-68
2023/05/19 14:50:06;;;;;;;8.27;3.63;;;;;;;;;;5031454;28;20086;-72
2023/05/19 14:52:52;;;;;;;6.85;3.33;;;;;;;;;;5035468;28;20119;-77
2023/05/19 14:55:37;;;;;;;5.95;3.03;;;;;;;;;;5034606;28;20136;-76
2023/05/19 14:58:22;;;;;;;10.35;3.17;;;;;;;;;;5037884;28;20062;-77
2023/05/19 15:01:07;;;;;;;11.45;4.20;;;;;;;;;;5034587;28;20029;-76
2023/05/19 15:03:53;;;;;;;7.80;3.28;;;;;;;;;;5034394;28;20140;-76
2023/05/19 15:06:38;;;;;;;8.88;3.22;;;;;;;;;;5035032;28;20190;-70
2023/05/19 15:09:23;;;;;;;8.15;3.30;;;;;;;;;;5034448;28;20078;-72
2023/05/19 15:12:08;;;;;;;10.55;3.63;;;;;;;;;;5033846;28;20036;-70
2023/05/19 15:14:53;;;;;;;8.38;3.15;;;;;;;;;;5011317;28;20037;-72
2023/05/19 15:17:39;;;;;;;9.45;3.92;;;;;;;;;;5027650;28;20535;-73
2023/05/19 15:20:24;;;;;;;11.55;3.92;;;;;;;;;;5032285;28;20074;-72
2023/05/19 15:23:09;;;;;;;11.13;3.35;;;;;;;;;;5022500;28;20075;-72
2023/05/19 15:25:56;;;;;;;6.15;2.97;;;;;;;;;;5033673;28;20065;-70
2023/05/19 15:28:41;;;;;;;9.00;3.45;;;;;;;;;;5029982;28;20036;-69
2023/05/19 15:31:26;;;;;;;9.90;3.40;;;;;;;;;;5040032;28;20020;-69
2023/05/19 15:34:11;;;;;;;10.98;3.70;;;;;;;;;;5034656;28;20037;-67
2023/05/19 15:36:57;;;;;;;6.53;2.95;;;;;;;;;;5034653;28;20427;-68
2023/05/19 15:39:42;;;;;;;7.35;3.05;;;;;;;;;;5034621;28;20029;-68
2023/05/19 15:42:27;;;;;;;8.23;3.40;;;;;;;;;;5022578;28;20041;-70
2023/05/19 15:45:13;;;;;;;14.82;3.97;;;;;;;;;;5021545;28;20368;-73
2023/05/19 15:47:58;;;;;;;6.75;3.10;;;;;;;;;;5033856;28;20362;-71
2023/05/19 15:50:43;;;;;;;9.60;2.97;;;;;;;;;;5030561;28;20118;-69
2023/05/19 15:53:28;;;;;;;11.07;3.50;;;;;;;;;;5033778;28;20025;-70
2023/05/19 15:56:14;;;;;;;7.50;3.38;;;;;;;;;;5019597;28;20112;-69
2023/05/19 15:58:59;;;;;;;11.10;3.78;;;;;;;;;;5047661;28;20492;-69
2023/05/19 16:01:44;;;;;;;10.32;3.75;;;;;;;;;;5033408;28;20031;-69
2023/05/19 16:04:30;;;;;;;7.97;3.50;;;;;;;;;;5034088;28;20192;-75
2023/05/19 16:07:15;;;;;;;6.70;3.05;;;;;;;;;;5033692;28;20040;-68
2023/05/19 16:10:00;;;;;;;6.30;2.60;;;;;;;;;;5019200;28;20311;-68
2023/05/19 16:12:46;;;;;;;8.82;3.92;;;;;;;;;;5033153;28;20464;-68
2023/05/19 16:15:31;;;;;;;8.65;3.65;;;;;;;;;;5034046;28;20025;-68
2023/05/19 16:18:16;;;;;;;9.73;4.25;;;;;;;;;;5031942;28;20040;-70
2023/05/19 16:21:02;;;;;;;7.13;2.92;;;;;;;;;;5033525;28;20510;-66
2023/05/19 16:23:47;;;;;;;10.45;3.35;;;;;;;;;;5031830;28;20468;-68
2023/05/19 16:26:33;;;;;;;6.38;2.90;;;;;;;;;;5026080;28;20044;-68
2023/05/19 16:29:18;;;;;;;9.35;3.13;;;;;;;;;;5015643;28;20166;-68
2023/05/19 16:32:03;;;;;;;9.27;3.70;;;;;;;;;;5042495;28;20025;-68
2023/05/19 16:34:49;;;;;;;8.15;3.25;;;;;;;;;;5033473;28;20108;-69